Time;durP1;ratioP1;P1;durP2;ratioP2;P2;SDS_P1;SDS_P2;PMS_P1;PMS_P2;Temp;Humidity;BMP_temperature;BMP_pressure;BME280_temperature;BME280_humidity;BME280_pressure;Samples;Min_cycle;Max_cycle;Signal;HPM_P1;HPM_P2
2022/07/16 00:02:50;;;;;;;6.70;4.30;;;;;;;21.10;51.63;99241.88;5047222;28;20170;-79
2022/07/16 00:05:16;;;;;;;13.02;4.00;;;;;;;21.16;51.67;99248.75;5030836;28;20463;-79
2022/07/16 00:07:41;;;;;;;12.52;3.90;;;;;;;21.16;51.80;99248.75;5039975;28;20079;-79
2022/07/16 00:10:07;;;;;;;6.80;4.15;;;;;;;21.17;51.75;99247.53;5054700;28;20025;-79
2022/07/16 00:12:33;;;;;;;5.38;3.70;;;;;;;21.30;51.44;99244.22;5035138;28;20087;-78
2022/07/16 00:14:59;;;;;;;9.65;4.35;;;;;;;21.20;51.75;99256.44;5034426;28;20041;-78
2022/07/16 00:17:24;;;;;;;6.50;4.72;;;;;;;21.25;51.93;99256.84;5028941;28;20120;-79
2022/07/16 00:19:50;;;;;;;6.65;4.43;;;;;;;21.27;51.77;99254.38;5034429;28;20030;-79
2022/07/16 00:22:15;;;;;;;5.65;3.88;;;;;;;21.26;51.58;99251.97;5003359;28;20029;-79
2022/07/16 00:24:41;;;;;;;9.48;4.00;;;;;;;21.27;51.55;99250.75;5014721;28;20467;-79
2022/07/16 00:27:06;;;;;;;13.60;4.03;;;;;;;21.25;51.87;99256.03;5031877;28;20021;-78
2022/07/16 00:29:32;;;;;;;7.40;4.18;;;;;;;21.40;51.69;99262.44;5034313;28;20463;-78
2022/07/16 00:31:57;;;;;;;9.73;4.30;;;;;;;21.41;51.10;99259.19;5016385;28;20035;-79
2022/07/16 00:34:23;;;;;;;9.35;4.47;;;;;;;21.45;51.04;99267.72;5034060;28;20025;-79
2022/07/16 00:36:49;;;;;;;6.45;4.35;;;;;;;21.57;50.93;99272.09;5015154;28;20091;-78
2022/07/16 00:39:17;;;;;;;4.80;3.65;;;;;;;21.74;50.54;99271.22;5034238;28;20408;-79
2022/07/16 00:41:45;;;;;;;12.13;4.40;;;;;;;21.99;49.82;99258.84;5016232;28;20095;-78
2022/07/16 00:44:15;;;;;;;50.85;6.55;;;;;;;21.83;50.46;99261.41;5016156;28;20025;-78
2022/07/16 00:46:41;;;;;;;20.27;5.47;;;;;;;21.68;50.79;99255.00;5016011;28;20500;-77
2022/07/16 00:49:07;;;;;;;9.32;4.00;;;;;;;21.53;51.42;99254.25;5032981;28;20067;-78
2022/07/16 00:51:33;;;;;;;5.22;4.25;;;;;;;21.68;50.92;99249.31;5033568;28;20034;-78
2022/07/16 00:53:59;;;;;;;5.63;3.63;;;;;;;21.92;50.19;99253.19;5033804;28;20532;-79
2022/07/16 00:56:26;;;;;;;6.00;3.60;;;;;;;22.07;49.80;99258.78;5033691;28;20105;-78
2022/07/16 00:58:53;;;;;;;4.10;3.30;;;;;;;22.07;49.99;99253.91;5013340;28;20029;-78
2022/07/16 01:01:19;;;;;;;7.18;3.65;;;;;;;22.08;50.28;99254.69;5033650;28;20153;-78
2022/07/16 01:03:45;;;;;;;16.17;3.95;;;;;;;21.88;51.52;99250.38;5033679;28;20032;-78
2022/07/16 01:06:12;;;;;;;7.93;4.00;;;;;;;21.71;52.12;99257.03;5033698;28;20021;-79
2022/07/16 01:08:41;;;;;;;9.15;4.22;;;;;;;21.62;52.06;99253.78;5015626;28;20500;-79
2022/07/16 01:11:08;;;;;;;7.10;4.15;;;;;;;21.51;51.75;99260.34;5023346;28;20109;-79
2022/07/16 01:13:39;;;;;;;5.32;3.80;;;;;;;21.44;50.74;99258.34;4995943;28;20041;-78
2022/07/16 01:16:05;;;;;;;4.65;3.75;;;;;;;21.34;49.92;99258.44;5013594;28;20112;-79
2022/07/16 01:18:30;;;;;;;6.78;3.40;;;;;;;21.28;50.10;99256.00;5025918;28;20025;-79
2022/07/16 01:20:56;;;;;;;8.98;3.80;;;;;;;21.28;49.86;99252.38;5032037;28;20104;-78
2022/07/16 01:23:23;;;;;;;4.20;3.83;;;;;;;21.38;49.75;99259.22;5033259;28;20022;-79
2022/07/16 01:25:49;;;;;;;3.75;3.08;;;;;;;21.35;49.57;99260.03;5031909;28;20029;-78
2022/07/16 01:28:15;;;;;;;7.38;3.65;;;;;;;21.32;49.43;99253.13;5032280;28;20029;-78
2022/07/16 01:30:41;;;;;;;6.80;3.50;;;;;;;21.28;48.86;99261.69;5033081;28;20109;-78
2022/07/16 01:33:28;;;;;;;5.40;3.38;;;;;;;21.33;48.61;99251.91;5033066;28;20100;-79
2022/07/16 01:35:57;;;;;;;6.25;3.45;;;;;;;21.41;48.43;99258.38;5013403;28;20017;-78
2022/07/16 01:38:23;;;;;;;7.97;3.55;;;;;;;21.41;48.22;99247.00;5032266;28;20498;-79
2022/07/16 01:40:48;;;;;;;4.63;3.30;;;;;;;21.38;48.59;99253.53;5035160;28;20158;-78
2022/07/16 01:43:24;;;;;;;8.20;3.30;;;;;;;21.25;48.85;99247.50;5034875;28;20025;-79
2022/07/16 01:45:51;;;;;;;7.90;3.95;;;;;;;21.12;49.36;99244.31;5031637;28;20028;-79
2022/07/16 01:48:16;;;;;;;5.38;3.33;;;;;;;21.07;49.49;99247.59;5014322;28;20025;-79
2022/07/16 01:50:43;;;;;;;7.03;4.05;;;;;;;20.90;49.65;99245.22;5032142;28;20100;-79
2022/07/16 01:53:09;;;;;;;9.57;3.75;;;;;;;20.89;49.90;99245.59;5031215;28;20033;-78
2022/07/16 01:55:35;;;;;;;6.20;3.65;;;;;;;20.80;50.05;99243.19;5032440;28;20030;-79
2022/07/16 01:58:03;;;;;;;3.95;3.55;;;;;;;20.54;50.98;99253.78;5016229;28;20040;-78
2022/07/16 02:00:29;;;;;;;5.40;3.25;;;;;;;20.51;51.49;99257.44;5013371;28;20565;-78
2022/07/16 02:02:55;;;;;;;7.80;3.88;;;;;;;20.22;52.02;99251.00;5031317;28;20407;-79
2022/07/16 02:05:21;;;;;;;28.98;4.22;;;;;;;20.09;52.57;99250.59;5014797;28;20076;-79
2022/07/16 02:07:46;;;;;;;5.38;3.60;;;;;;;20.17;52.55;99258.69;5019939;28;20057;-78
2022/07/16 02:10:12;;;;;;;5.78;3.90;;;;;;;20.14;52.55;99265.19;5031133;28;20032;-78
2022/07/16 02:12:38;;;;;;;5.80;3.80;;;;;;;20.12;52.71;99263.97;5031865;28;20026;-78
2022/07/16 02:15:05;;;;;;;10.98;4.13;;;;;;;20.12;53.21;99266.81;5014434;28;20061;-78
2022/07/16 02:17:30;;;;;;;14.20;4.32;;;;;;;20.15;53.23;99265.97;5012853;28;20025;-78
2022/07/16 02:19:56;;;;;;;7.65;4.22;;;;;;;20.24;52.79;99268.44;5032103;28;20502;-78
2022/07/16 02:22:21;;;;;;;7.90;3.88;;;;;;;20.29;52.39;99263.16;5014470;28;20127;-78
2022/07/16 02:24:47;;;;;;;7.13;4.13;;;;;;;20.18;52.43;99271.66;5032254;28;20026;-78
2022/07/16 02:27:12;;;;;;;13.88;4.85;;;;;;;20.02;53.06;99263.53;5019504;28;20558;-78
2022/07/16 02:29:38;;;;;;;9.27;4.68;;;;;;;19.93;53.25;99263.16;5032070;28;20116;-78
2022/07/16 02:32:04;;;;;;;13.43;3.90;;;;;;;19.92;53.51;99253.00;5029515;28;20056;-78
2022/07/16 02:34:29;;;;;;;11.02;3.90;;;;;;;19.88;53.53;99253.00;5012033;28;20025;-78
2022/07/16 02:36:55;;;;;;;21.67;4.00;;;;;;;19.80;53.83;99253.38;5005436;28;20518;-79
2022/07/16 02:39:20;;;;;;;16.27;4.57;;;;;;;19.65;54.19;99253.34;5009537;28;20068;-79
2022/07/16 02:41:46;;;;;;;11.07;4.30;;;;;;;19.49;55.08;99254.53;5012229;28;20025;-78
2022/07/16 02:44:11;;;;;;;15.40;5.18;;;;;;;19.02;56.64;99262.88;5030595;28;20025;-78
2022/07/16 02:46:37;;;;;;;13.85;4.03;;;;;;;19.02;56.59;99268.56;5031524;28;20407;-78
2022/07/16 02:49:02;;;;;;;16.73;5.60;;;;;;;19.16;56.33;99267.00;5030639;28;20021;-78
2022/07/16 02:51:28;;;;;;;14.48;4.82;;;;;;;19.27;55.60;99270.69;5013803;28;20168;-78
2022/07/16 02:53:53;;;;;;;12.18;4.93;;;;;;;19.32;55.25;99266.66;5013756;28;20033;-78
2022/07/16 02:56:18;;;;;;;15.38;4.22;;;;;;;19.48;54.96;99271.94;5008407;28;20018;-78
2022/07/16 02:58:44;;;;;;;5.60;4.43;;;;;;;19.43;54.42;99258.16;5022554;28;20086;-78
2022/07/16 03:01:09;;;;;;;9.43;4.07;;;;;;;19.73;53.48;99269.16;5013201;28;20017;-77
2022/07/16 03:03:35;;;;;;;24.05;6.03;;;;;;;19.84;53.09;99266.34;5013697;28;20389;-78
2022/07/16 03:06:01;;;;;;;8.88;4.15;;;;;;;19.75;53.16;99265.94;5030923;28;20075;-78
2022/07/16 03:08:27;;;;;;;8.18;4.45;;;;;;;19.62;53.55;99263.50;5012941;28;20112;-78
2022/07/16 03:10:52;;;;;;;13.40;5.25;;;;;;;19.72;53.19;99258.22;5031304;28;20092;-78
2022/07/16 03:13:18;;;;;;;10.82;4.22;;;;;;;20.03;52.69;99282.22;5031061;28;20481;-78
2022/07/16 03:15:44;;;;;;;13.05;4.45;;;;;;;19.89;52.86;99277.31;5030790;28;20496;-78
2022/07/16 03:18:09;;;;;;;12.02;3.97;;;;;;;20.06;52.63;99275.72;5029995;28;20112;-78
2022/07/16 03:20:34;;;;;;;15.77;4.95;;;;;;;19.89;52.95;99268.78;5031221;28;20052;-78
2022/07/16 03:23:00;;;;;;;34.63;6.47;;;;;;;19.84;53.36;99266.34;5031104;28;20029;-78
2022/07/16 03:25:26;;;;;;;15.82;4.70;;;;;;;19.66;54.19;99269.16;5031199;28;20029;-78
2022/07/16 03:27:51;;;;;;;17.70;5.13;;;;;;;19.51;54.67;99285.34;5018485;28;20112;-78
2022/07/16 03:30:17;;;;;;;16.23;4.85;;;;;;;19.54;54.76;99286.53;5029542;28;20029;-78
2022/07/16 03:32:43;;;;;;;4.90;4.22;;;;;;;19.53;54.45;99287.75;5011445;28;20025;-79
2022/07/16 03:35:10;;;;;;;14.68;4.82;;;;;;;19.45;54.74;99284.09;5012230;28;20033;-78
2022/07/16 03:40:34;;;;;;;8.77;4.88;;;;;;;19.28;55.44;99286.47;5006864;28;20121;-78
2022/07/16 03:42:59;;;;;;;11.40;4.68;;;;;;;19.40;55.29;99290.97;5039626;28;20128;-78
2022/07/16 03:45:25;;;;;;;11.25;4.53;;;;;;;19.58;54.78;99290.22;5031838;28;20080;-78
2022/07/16 03:47:51;;;;;;;7.13;4.30;;;;;;;19.94;54.49;99293.16;5014190;28;20032;-79
2022/07/16 03:50:17;;;;;;;10.00;5.25;;;;;;;20.22;54.19;99294.38;5034364;28;20021;-82
2022/07/16 03:52:42;;;;;;;11.77;4.50;;;;;;;19.80;54.97;99287.44;5034655;28;20508;-77
2022/07/16 03:55:09;;;;;;;11.05;5.45;;;;;;;19.18;56.94;99292.91;5016598;28;20036;-78
2022/07/16 03:57:35;;;;;;;18.33;6.05;;;;;;;19.11;58.10;99305.03;5033074;28;20030;-79
2022/07/16 04:00:00;;;;;;;20.20;5.47;;;;;;;19.17;57.76;99300.59;5017092;28;20384;-80
2022/07/16 04:02:26;;;;;;;7.85;4.85;;;;;;;19.30;57.35;99303.91;5034691;28;20492;-78
2022/07/16 04:04:51;;;;;;;9.00;5.20;;;;;;;19.47;57.39;99310.03;5034843;28;20096;-80
2022/07/16 04:07:17;;;;;;;15.98;5.80;;;;;;;19.43;57.31;99301.53;5010951;28;20041;-78
2022/07/16 04:09:42;;;;;;;6.22;5.40;;;;;;;19.44;57.38;99314.50;5015232;28;20029;-80
2022/07/16 04:12:08;;;;;;;9.90;5.45;;;;;;;19.35;57.86;99299.88;5035264;28;20108;-75
2022/07/16 04:14:33;;;;;;;13.07;5.63;;;;;;;19.46;58.25;99306.41;5031745;28;20111;-77
2022/07/16 04:16:59;;;;;;;9.60;6.47;;;;;;;19.43;57.70;99314.88;5034568;28;20100;-79
2022/07/16 04:19:24;;;;;;;14.85;5.47;;;;;;;19.35;57.69;99312.00;5015222;28;20408;-76
2022/07/16 04:21:50;;;;;;;11.70;4.80;;;;;;;19.38;58.37;99318.91;5015268;28;20052;-78
2022/07/16 04:24:15;;;;;;;11.10;5.30;;;;;;;19.55;58.05;99319.38;5030544;28;20107;-80
2022/07/16 04:26:41;;;;;;;12.57;4.75;;;;;;;19.44;57.66;99300.31;5033389;28;20037;-82
2022/07/16 04:29:06;;;;;;;7.35;5.07;;;;;;;19.75;57.28;99312.13;5035751;28;20044;-82
2022/07/16 04:31:32;;;;;;;7.82;5.45;;;;;;;19.94;56.53;99321.53;5020140;28;20021;-80
2022/07/16 04:33:57;;;;;;;9.02;5.07;;;;;;;20.16;55.84;99330.09;5015726;28;20089;-77
2022/07/16 04:36:23;;;;;;;19.98;6.00;;;;;;;20.38;55.32;99318.72;5033050;28;20033;-79
2022/07/16 04:38:48;;;;;;;12.63;5.85;;;;;;;20.66;54.44;99317.09;5032568;28;20038;-79
2022/07/16 04:41:13;;;;;;;7.93;5.00;;;;;;;20.87;53.69;99314.22;5016059;28;20028;-77
2022/07/16 04:43:39;;;;;;;18.17;5.25;;;;;;;21.16;52.59;99319.03;5015541;28;20028;-79
2022/07/16 04:46:05;;;;;;;15.35;5.60;;;;;;;21.34;52.17;99318.94;5033305;28;20021;-77
2022/07/16 04:48:30;;;;;;;13.07;5.68;;;;;;;21.63;51.43;99332.25;5032653;28;20026;-81
2022/07/16 04:50:56;;;;;;;21.73;5.47;;;;;;;21.73;50.72;99331.41;5015508;28;20035;-79
2022/07/16 04:53:21;;;;;;;12.43;4.88;;;;;;;21.80;49.94;99334.22;5012393;28;20032;-83
2022/07/16 04:55:47;;;;;;;12.20;5.40;;;;;;;21.90;49.73;99335.38;5030753;28;20497;-83
2022/07/16 04:58:12;;;;;;;13.32;5.03;;;;;;;22.09;49.40;99348.25;5003580;28;20037;-82
2022/07/16 05:00:38;;;;;;;6.95;4.47;;;;;;;22.18;48.98;99339.25;5031132;28;20037;-78
2022/07/16 05:03:04;;;;;;;10.45;4.30;;;;;;;22.28;48.85;99338.38;5033598;28;20455;-82
2022/07/16 05:05:32;;;;;;;17.85;5.30;;;;;;;22.44;48.70;99345.56;5032100;28;20029;-81
2022/07/16 05:07:59;;;;;;;11.07;4.75;;;;;;;22.62;48.81;99336.09;5031376;28;20461;-81
2022/07/16 05:10:25;;;;;;;11.90;4.85;;;;;;;22.77;48.22;99340.41;5015451;28;20021;-81
2022/07/16 05:12:52;;;;;;;18.10;7.55;;;;;;;22.99;47.73;99337.34;5019341;28;20090;-80
2022/07/16 05:15:18;;;;;;;13.65;5.35;;;;;;;23.06;47.73;99336.47;5053770;28;20484;-81
2022/07/16 05:17:43;;;;;;;12.70;5.72;;;;;;;23.39;47.66;99339.78;5053096;28;20052;-82
2022/07/16 05:20:09;;;;;;;28.98;16.50;;;;;;;23.60;46.81;99338.69;5031723;28;20025;-82
2022/07/16 05:22:35;;;;;;;32.33;16.48;;;;;;;23.77;46.30;99336.00;5037043;28;20044;-82
2022/07/16 05:25:00;;;;;;;14.50;8.60;;;;;;;24.00;45.42;99337.34;5053874;28;20056;-82
2022/07/16 05:27:26;;;;;;;8.32;4.82;;;;;;;24.12;44.21;99328.19;5039389;28;20032;-82
2022/07/16 05:29:52;;;;;;;10.32;3.92;;;;;;;24.45;43.51;99339.91;5034970;28;20040;-82
2022/07/16 05:32:17;;;;;;;8.77;4.60;;;;;;;24.74;42.73;99345.16;5034148;28;20039;-82
2022/07/16 05:34:43;;;;;;;6.43;3.80;;;;;;;24.93;42.50;99346.47;5034090;28;20032;-77
2022/07/16 05:37:08;;;;;;;12.02;4.05;;;;;;;25.08;41.21;99341.28;5032271;28;20468;-74
2022/07/16 05:39:33;;;;;;;11.93;3.72;;;;;;;25.21;40.05;99343.47;5033584;28;20036;-78
2022/07/16 05:41:59;;;;;;;10.65;3.45;;;;;;;25.23;39.51;99341.00;5048642;28;20038;-79
2022/07/16 05:44:24;;;;;;;14.15;3.55;;;;;;;25.41;38.08;99348.41;5041969;28;20120;-79
2022/07/16 05:46:50;;;;;;;6.90;3.30;;;;;;;25.28;38.77;99349.06;5048246;28;20025;-78
2022/07/16 05:49:16;;;;;;;14.05;3.70;;;;;;;25.40;39.21;99352.53;5024753;28;20476;-80
2022/07/16 05:51:41;;;;;;;6.10;3.97;;;;;;;25.47;37.85;99353.19;5035025;28;20396;-80
2022/07/16 05:54:06;;;;;;;15.15;4.00;;;;;;;25.67;38.60;99352.41;5031318;28;20091;-77
2022/07/16 05:56:32;;;;;;;7.32;4.20;;;;;;;25.59;38.09;99343.16;5033687;28;20026;-79
2022/07/16 05:59:02;;;;;;;5.28;4.18;;;;;;;25.64;37.73;99347.53;5045434;28;20136;-75
2022/07/16 06:01:28;;;;;;;11.88;4.15;;;;;;;25.72;38.76;99345.34;5034920;28;20470;-74
2022/07/16 06:03:54;;;;;;;9.93;4.15;;;;;;;25.83;38.01;99334.47;5033953;28;20040;-73
2022/07/16 06:06:19;;;;;;;11.32;3.72;;;;;;;25.96;38.62;99339.50;5030831;28;20021;-80
2022/07/16 06:08:44;;;;;;;9.77;4.15;;;;;;;26.09;38.00;99343.28;5046652;28;20036;-77
2022/07/16 06:11:10;;;;;;;15.68;3.33;;;;;;;26.31;37.56;99337.06;5051737;28;20501;-75
2022/07/16 06:13:36;;;;;;;12.93;3.75;;;;;;;26.49;38.21;99340.28;5031918;28;20534;-76
2022/07/16 06:16:03;;;;;;;5.32;3.38;;;;;;;26.60;37.91;99333.47;5030943;28;20037;-77
2022/07/16 06:18:28;;;;;;;8.07;3.35;;;;;;;26.75;37.56;99328.19;5020170;28;20095;-84
2022/07/16 06:20:54;;;;;;;7.95;3.10;;;;;;;26.88;37.91;99329.09;5039584;28;20419;-79
2022/07/16 06:23:19;;;;;;;6.55;3.30;;;;;;;27.00;37.74;99336.13;5046945;28;20035;-80
2022/07/16 06:25:45;;;;;;;11.00;4.80;;;;;;;27.15;38.90;99324.25;5050547;28;20510;-80
2022/07/16 06:28:10;;;;;;;7.97;3.90;;;;;;;27.17;38.10;99325.41;5037513;28;20061;-79
2022/07/16 06:30:36;;;;;;;7.20;2.90;;;;;;;27.42;38.33;99328.81;5048500;28;20033;-78
2022/07/16 06:33:01;;;;;;;81.05;6.63;;;;;;;27.53;38.06;99326.47;5039766;28;21237;-78
2022/07/16 06:35:27;;;;;;;13.95;3.17;;;;;;;27.60;36.02;99314.75;5030993;28;20060;-78
2022/07/16 06:37:52;;;;;;;8.85;3.33;;;;;;;27.74;36.47;99325.00;5044801;28;20123;-79
2022/07/16 06:40:18;;;;;;;7.28;3.33;;;;;;;27.77;35.33;99311.81;5046871;28;20499;-79
2022/07/16 06:42:43;;;;;;;17.83;3.17;;;;;;;27.81;36.13;99309.63;5046186;28;20403;-79
2022/07/16 06:50:45;;;;;;;8.23;2.45;;;;;;;28.23;35.93;99302.97;4983342;28;20122;-78
2022/07/16 06:53:10;;;;;;;7.25;2.85;;;;;;;28.47;35.67;99311.22;4950635;28;20042;-78
2022/07/16 06:55:35;;;;;;;10.00;2.50;;;;;;;28.63;34.63;99318.91;4974189;28;20034;-78
2022/07/16 06:58:01;;;;;;;6.93;2.45;;;;;;;28.67;33.89;99308.06;4972764;28;20022;-78
2022/07/16 07:00:26;;;;;;;14.48;2.80;;;;;;;28.92;32.93;99326.56;4977407;28;20037;-77
2022/07/16 07:02:52;;;;;;;3.67;2.40;;;;;;;29.07;32.71;99320.28;4979944;28;20041;-78
2022/07/16 07:05:17;;;;;;;47.72;4.32;;;;;;;29.17;33.01;99313.31;4958117;28;20085;-78
2022/07/16 07:07:43;;;;;;;7.13;2.58;;;;;;;29.16;32.68;99314.59;4966169;28;20064;-78
2022/07/16 07:10:09;;;;;;;10.70;2.92;;;;;;;29.21;32.68;99304.56;4976838;28;20117;-78
2022/07/16 07:12:34;;;;;;;5.50;2.72;;;;;;;29.40;32.80;99312.06;4967883;28;20153;-78
2022/07/16 07:15:00;;;;;;;7.80;2.88;;;;;;;29.55;31.75;99300.81;4971571;28;20117;-78
2022/07/16 07:17:25;;;;;;;4.10;2.55;;;;;;;29.68;31.78;99305.69;4976530;28;20094;-78
2022/07/16 07:19:51;;;;;;;16.98;3.55;;;;;;;29.86;31.84;99309.94;4971062;28;20477;-78
2022/07/16 07:22:16;;;;;;;6.47;2.60;;;;;;;29.97;30.84;99305.34;4956466;28;20031;-78
2022/07/16 07:24:42;;;;;;;13.65;4.47;;;;;;;30.16;31.47;99291.03;4970114;28;20051;-79
2022/07/16 07:27:07;;;;;;;13.85;4.07;;;;;;;30.20;30.82;99296.66;4983479;28;20035;-78
2022/07/16 07:29:33;;;;;;;6.57;2.55;;;;;;;30.39;29.76;99297.50;4975957;28;20038;-79
2022/07/16 07:31:58;;;;;;;8.85;3.78;;;;;;;30.47;29.69;99307.47;4991333;28;20069;-79
2022/07/16 07:34:24;;;;;;;11.85;3.67;;;;;;;30.56;31.13;99312.47;4960059;28;20041;-77
2022/07/16 07:36:50;;;;;;;8.15;3.13;;;;;;;30.54;29.27;99298.50;4969378;28;20499;-77
2022/07/16 07:39:15;;;;;;;12.10;2.97;;;;;;;30.37;29.22;99289.31;4969118;28;20035;-78
2022/07/16 07:41:41;;;;;;;3.42;2.65;;;;;;;30.66;28.58;99311.22;4971053;28;20034;-78
2022/07/16 07:44:07;;;;;;;30.75;4.72;;;;;;;30.69;29.58;99309.44;4972402;28;20042;-75
2022/07/16 07:46:32;;;;;;;11.00;3.70;;;;;;;30.69;30.61;99309.44;4967173;28;20390;-79
2022/07/16 07:48:58;;;;;;;6.45;2.80;;;;;;;30.54;29.98;99301.38;4969139;28;20532;-79
2022/07/16 07:51:24;;;;;;;9.50;4.07;;;;;;;30.78;30.52;99306.56;4971276;28;20045;-79
2022/07/16 07:53:49;;;;;;;7.30;4.90;;;;;;;30.98;30.91;99316.03;4975334;28;20027;-84
2022/07/16 07:56:15;;;;;;;5.07;3.00;;;;;;;31.08;28.94;99315.59;4988423;28;20121;-79
2022/07/16 07:58:40;;;;;;;4.18;2.30;;;;;;;31.04;29.29;99311.25;4968407;28;20031;-82
2022/07/16 08:01:06;;;;;;;7.22;2.88;;;;;;;31.10;28.38;99300.66;4971198;28;20031;-81
2022/07/16 08:03:32;;;;;;;6.90;3.28;;;;;;;31.27;29.35;99311.91;4970953;28;20476;-77
2022/07/16 08:05:57;;;;;;;9.85;3.85;;;;;;;31.46;29.34;99310.59;4967536;28;20054;-82
2022/07/16 08:08:23;;;;;;;6.55;2.60;;;;;;;31.64;29.51;99300.28;4969737;28;21427;-86
2022/07/16 08:10:48;;;;;;;9.18;3.55;;;;;;;31.78;28.98;99293.81;4968714;28;20050;-81
2022/07/16 08:13:14;;;;;;;4.63;3.10;;;;;;;31.87;28.77;99295.09;4985991;28;20485;-85
2022/07/16 08:15:39;;;;;;;7.35;2.85;;;;;;;31.79;28.46;99294.63;4969056;28;20101;-77
2022/07/16 08:18:05;;;;;;;8.25;2.58;;;;;;;32.11;28.92;99294.34;4973263;28;20034;-78
2022/07/16 08:20:30;;;;;;;3.50;2.63;;;;;;;31.71;26.90;99288.34;4972079;28;20026;-79
2022/07/16 08:22:56;;;;;;;13.27;2.67;;;;;;;32.02;27.84;99298.06;4968564;28;20041;-78
2022/07/16 08:28:05;;;;;;;7.70;2.63;;;;;;;32.46;27.59;99288.06;4951269;28;20138;-78
2022/07/16 08:30:30;;;;;;;8.73;2.05;;;;;;;32.52;27.07;99280.31;4954733;28;20068;-78
2022/07/16 08:32:56;;;;;;;55.17;5.97;;;;;;;32.65;27.35;99282.16;4986003;28;20496;-78
2022/07/16 08:35:21;;;;;;;49.00;5.65;;;;;;;32.75;26.64;99281.59;4971968;28;20421;-78
2022/07/16 08:37:48;;;;;;;12.65;3.47;;;;;;;32.85;26.74;99278.63;4989248;28;20019;-77
2022/07/16 08:40:19;;;;;;;7.97;2.60;;;;;;;32.91;26.60;99277.47;4974524;28;20015;-78
2022/07/16 08:42:46;;;;;;;5.63;2.53;;;;;;;33.12;25.37;99283.41;4961281;28;20522;-78
2022/07/16 08:45:14;;;;;;;13.48;2.20;;;;;;;33.16;25.37;99274.53;4951862;29;20038;-79
2022/07/16 08:47:39;;;;;;;16.33;2.60;;;;;;;33.19;25.05;99280.13;4951841;28;20528;-78
2022/07/16 08:50:10;;;;;;;5.57;2.42;;;;;;;33.12;24.37;99277.63;4974129;28;20050;-79
2022/07/16 08:52:39;;;;;;;7.22;2.30;;;;;;;33.38;24.15;99279.94;4971978;28;20122;-80
2022/07/16 08:55:05;;;;;;;6.65;2.97;;;;;;;33.45;24.15;99279.56;4987086;28;20033;-78
2022/07/16 08:57:32;;;;;;;2.65;2.42;;;;;;;33.55;24.22;99271.56;4972485;28;20034;-78
2022/07/16 08:59:58;;;;;;;3.92;2.38;;;;;;;33.58;23.98;99275.56;4986591;28;20034;-81
2022/07/16 09:02:23;;;;;;;5.15;2.13;;;;;;;33.53;22.70;99267.56;4971385;28;20646;-78
2022/07/16 09:04:49;;;;;;;2.88;2.10;;;;;;;33.70;23.48;99268.66;4987606;28;20117;-78
2022/07/16 09:07:18;;;;;;;10.23;2.30;;;;;;;34.07;23.12;99270.31;4973727;28;20035;-78
2022/07/16 09:09:45;;;;;;;7.22;2.53;;;;;;;34.17;23.97;99268.09;4973961;28;20555;-78
2022/07/16 09:12:32;;;;;;;3.63;2.08;;;;;;;34.15;22.89;99274.41;4974808;28;20497;-78
2022/07/16 09:14:57;;;;;;;5.50;2.00;;;;;;;33.99;22.66;99269.94;4982791;28;20039;-78
2022/07/16 09:17:23;;;;;;;1.90;1.70;;;;;;;33.82;21.85;99269.63;4974687;28;20481;-77
2022/07/16 09:19:48;;;;;;;2.42;2.03;;;;;;;33.97;22.07;99272.50;4973879;28;20433;-78
2022/07/16 09:22:15;;;;;;;3.45;2.13;;;;;;;33.99;22.21;99263.34;4989508;28;20097;-78
2022/07/16 09:24:45;;;;;;;4.22;2.38;;;;;;;34.44;21.90;99269.00;4989649;28;20493;-78
2022/07/16 09:27:12;;;;;;;;;;;;;;;34.40;21.67;99266.31;4975142;28;20042;-78
2022/07/16 09:29:58;;;;;;;5.68;2.20;;;;;;;34.48;22.69;99260.88;4973742;28;19910;-78
2022/07/16 09:32:29;;;;;;;3.13;2.30;;;;;;;34.70;23.14;99263.31;4974546;28;20457;-78
2022/07/16 09:35:01;;;;;;;2.70;2.15;;;;;;;34.65;22.85;99260.34;4974286;28;20031;-78
2022/07/16 09:37:43;;;;;;;3.42;2.25;;;;;;;34.88;21.86;99257.72;4989259;28;20085;-78
2022/07/16 09:40:09;;;;;;;4.47;2.08;;;;;;;35.05;22.42;99263.72;4973447;28;20581;-77
2022/07/16 09:42:38;;;;;;;6.45;2.28;;;;;;;35.03;22.21;99257.59;4989202;28;20027;-78
2022/07/16 09:45:05;;;;;;;5.85;2.40;;;;;;;34.76;21.47;99259.66;4974260;28;20054;-78
2022/07/16 09:47:31;;;;;;;3.35;2.00;;;;;;;34.56;22.37;99250.47;4974384;28;20480;-78
2022/07/16 09:49:57;;;;;;;21.10;2.95;;;;;;;34.80;21.65;99251.53;4987061;28;20043;-78
2022/07/16 09:52:27;;;;;;;6.53;3.00;;;;;;;34.94;21.58;99252.75;4989032;28;20031;-78
2022/07/16 09:54:57;;;;;;;8.52;2.67;;;;;;;35.24;21.55;99246.75;4988889;28;20023;-78
2022/07/16 09:57:25;;;;;;;7.15;2.42;;;;;;;35.21;21.24;99253.59;4974154;28;20105;-78
2022/07/16 09:59:51;;;;;;;5.65;2.55;;;;;;;35.18;21.33;99257.53;4988143;28;20038;-78
2022/07/16 10:02:17;;;;;;;3.15;2.08;;;;;;;35.28;21.17;99245.19;4974048;28;20030;-78
2022/07/16 10:04:42;;;;;;;5.30;2.50;;;;;;;35.26;21.62;99238.31;4973815;28;20603;-78
2022/07/16 10:07:08;;;;;;;3.28;2.38;;;;;;;35.19;21.27;99242.50;4973838;28;20026;-78
2022/07/16 10:09:34;;;;;;;12.23;2.47;;;;;;;35.33;21.51;99240.75;4972952;28;20489;-78
2022/07/16 10:12:09;;;;;;;12.10;2.80;;;;;;;35.47;20.34;99244.03;4973837;28;20031;-78
2022/07/16 10:14:36;;;;;;;7.32;2.40;;;;;;;35.46;20.62;99237.44;4973848;28;20401;-78
2022/07/16 10:17:12;;;;;;;4.47;2.38;;;;;;;35.61;20.57;99227.81;4973894;28;20486;-78
2022/07/16 10:19:38;;;;;;;3.33;2.17;;;;;;;35.65;20.24;99240.00;4972820;28;20061;-77
2022/07/16 10:22:19;;;;;;;2.88;2.03;;;;;;;35.67;19.83;99229.44;4973578;28;20497;-78
2022/07/16 10:24:54;;;;;;;3.50;2.05;;;;;;;35.76;19.61;99230.59;4972312;28;20106;-78
2022/07/16 10:27:32;;;;;;;6.63;2.25;;;;;;;35.82;20.17;99223.50;4973571;28;20031;-78
2022/07/16 10:30:23;;;;;;;2.28;2.08;;;;;;;35.97;20.47;99229.16;4972625;28;20030;-77
2022/07/16 10:33:06;;;;;;;5.63;1.70;;;;;;;36.04;19.96;99227.88;4973467;28;20027;-78
2022/07/16 10:35:49;;;;;;;2.10;1.90;;;;;;;35.87;20.78;99227.75;4973297;28;20101;-77
2022/07/16 10:38:20;;;;;;;2.58;2.38;;;;;;;35.91;19.26;99207.94;4987623;28;20445;-77
2022/07/16 10:40:46;;;;;;;5.20;2.00;;;;;;;35.82;20.08;99222.69;4973270;28;20408;-77
2022/07/16 10:43:16;;;;;;;8.32;2.53;;;;;;;35.86;20.46;99211.63;4970594;28;20027;-77
2022/07/16 10:45:56;;;;;;;4.13;2.30;;;;;;;36.01;20.38;99210.66;4973004;28;20425;-77
2022/07/16 10:48:26;;;;;;;2.50;1.90;;;;;;;36.22;19.71;99205.50;4972790;28;20062;-77
2022/07/16 10:51:18;;;;;;;11.32;2.10;;;;;;;36.64;20.28;99200.16;4972306;28;20138;-77
2022/07/16 10:53:58;;;;;;;6.22;2.17;;;;;;;36.75;19.64;99200.19;4972389;28;20029;-77
2022/07/16 10:56:40;;;;;;;6.40;2.53;;;;;;;36.64;20.26;99192.22;4972897;28;20031;-77
2022/07/16 10:59:08;;;;;;;3.92;2.10;;;;;;;36.67;19.75;99194.06;4971217;28;20037;-79
2022/07/16 11:01:35;;;;;;;5.25;2.05;;;;;;;36.24;19.22;99183.28;4971572;28;20428;-77
2022/07/16 11:04:02;;;;;;;5.40;1.95;;;;;;;36.56;19.61;99187.41;4987782;28;20026;-77
2022/07/16 11:06:29;;;;;;;4.05;1.95;;;;;;;36.77;19.36;99188.81;4972638;28;20019;-77
2022/07/16 11:08:56;;;;;;;24.75;2.95;;;;;;;36.55;21.15;99197.47;4972132;28;20504;-77
2022/07/16 11:11:22;;;;;;;5.10;2.03;;;;;;;36.09;20.06;99185.59;4972675;28;20030;-77
2022/07/16 11:13:49;;;;;;;4.00;2.13;;;;;;;36.23;20.69;99184.63;4987748;28;20174;-77
2022/07/16 11:16:14;;;;;;;6.53;4.82;;;;;;;36.50;19.51;99191.06;4987444;28;20027;-78
2022/07/16 11:18:40;;;;;;;7.53;2.67;;;;;;;36.93;21.05;99180.66;4986771;28;20027;-77
2022/07/16 11:21:07;;;;;;;7.50;4.20;;;;;;;36.68;20.50;99194.84;4971246;28;20085;-77
2022/07/16 11:23:49;;;;;;;14.90;2.63;;;;;;;36.76;20.24;99190.13;4986176;28;20046;-77
2022/07/16 11:26:16;;;;;;;8.05;2.47;;;;;;;36.69;20.54;99195.66;4972154;28;20485;-77
2022/07/16 11:28:59;;;;;;;12.60;2.40;;;;;;;36.22;19.77;99191.75;4972539;28;20026;-78
2022/07/16 11:31:32;;;;;;;2.47;2.10;;;;;;;36.19;20.03;99184.06;4972445;28;20520;-78
2022/07/16 11:34:08;;;;;;;6.80;6.18;;;;;;;36.34;20.92;99180.16;4971630;28;20485;-78
2022/07/16 11:36:34;;;;;;;2.88;2.67;;;;;;;36.32;20.49;99186.50;4970931;28;20049;-78
2022/07/16 11:39:05;;;;;;;3.78;2.55;;;;;;;36.34;19.81;99165.63;4972531;28;20029;-77
2022/07/16 11:41:32;;;;;;;3.10;2.40;;;;;;;36.61;20.55;99177.91;4972332;28;20069;-77
2022/07/16 11:43:58;;;;;;;7.15;2.80;;;;;;;36.35;19.75;99167.22;4970890;28;20493;-77